Time;durP1;ratioP1;P1;durP2;ratioP2;P2;SDS_P1;SDS_P2;PMS_P1;PMS_P2;Temp;Humidity;BMP_temperature;BMP_pressure;BME280_temperature;BME280_humidity;BME280_pressure;Samples;Min_cycle;Max_cycle;Signal;HPM_P1;HPM_P2
2022/03/31 00:01:00;;;;;;;24.05;17.17;;;7.70;99.90;;;;;;5084637;28;20250;-85
2022/03/31 00:03:27;;;;;;;24.20;16.10;;;7.70;99.90;;;;;;5068815;28;20206;-84
2022/03/31 00:05:55;;;;;;;23.40;16.50;;;7.70;99.90;;;;;;5077669;28;20808;-84
2022/03/31 00:08:22;;;;;;;20.13;15.25;;;7.80;99.90;;;;;;5070503;28;20219;-85
2022/03/31 00:10:52;;;;;;;24.08;16.48;;;7.70;99.90;;;;;;5075625;28;20282;-84
2022/03/31 00:13:22;;;;;;;24.23;16.73;;;7.70;99.90;;;;;;5081649;28;20253;-84
2022/03/31 00:15:51;;;;;;;25.50;18.95;;;7.70;99.90;;;;;;5079524;28;20195;-84
2022/03/31 00:18:19;;;;;;;20.60;14.70;;;7.70;99.90;;;;;;5076758;28;20227;-85
2022/03/31 00:20:46;;;;;;;25.75;19.27;;;7.60;99.90;;;;;;5071337;28;20886;-84
2022/03/31 00:23:15;;;;;;;20.88;16.58;;;7.60;99.90;;;;;;5069666;28;20305;-84
2022/03/31 00:25:43;;;;;;;21.10;15.18;;;7.50;99.90;;;;;;5077825;28;20200;-84
2022/03/31 00:28:11;;;;;;;20.63;16.77;;;7.50;99.90;;;;;;5079178;28;20197;-84
2022/03/31 00:30:39;;;;;;;21.85;15.98;;;7.50;99.90;;;;;;5082710;28;20196;-84
2022/03/31 00:33:06;;;;;;;22.67;14.75;;;7.60;99.90;;;;;;5078054;28;20297;-85
2022/03/31 00:35:34;;;;;;;24.25;16.00;;;7.50;99.90;;;;;;5082316;28;20244;-84
2022/03/31 00:38:01;;;;;;;23.02;15.63;;;7.50;99.90;;;;;;5087478;28;20215;-84
2022/03/31 00:40:32;;;;;;;27.58;17.20;;;7.60;99.90;;;;;;5073245;28;20293;-85
2022/03/31 00:42:59;;;;;;;21.42;15.75;;;7.50;99.90;;;;;;5069485;28;20674;-84
2022/03/31 00:45:32;;;;;;;21.40;15.88;;;7.50;99.90;;;;;;5076139;28;20199;-84
2022/03/31 00:47:59;;;;;;;20.08;14.95;;;7.40;99.90;;;;;;5089329;28;20284;-84
2022/03/31 00:50:26;;;;;;;22.10;15.68;;;7.40;99.90;;;;;;5081278;28;20195;-84
2022/03/31 00:52:53;;;;;;;21.45;15.43;;;7.50;99.90;;;;;;5069331;28;20197;-84
2022/03/31 00:55:21;;;;;;;22.83;17.20;;;7.50;99.90;;;;;;5081758;28;20230;-85
2022/03/31 00:57:55;;;;;;;19.88;14.93;;;7.40;99.90;;;;;;5075265;28;20268;-84
2022/03/31 01:00:22;;;;;;;26.33;16.83;;;7.30;99.90;;;;;;5078496;28;20392;-84
2022/03/31 01:02:49;;;;;;;26.25;16.70;;;7.30;99.90;;;;;;5088530;28;20263;-84
2022/03/31 01:05:16;;;;;;;23.42;15.30;;;7.30;99.90;;;;;;5083578;28;20236;-85
2022/03/31 01:07:43;;;;;;;25.48;16.23;;;7.30;99.90;;;;;;5087315;28;20305;-84
2022/03/31 01:10:13;;;;;;;21.13;16.17;;;7.30;99.90;;;;;;5079527;28;20505;-85
2022/03/31 01:12:42;;;;;;;21.88;15.43;;;7.30;99.90;;;;;;5088923;28;20672;-84
2022/03/31 01:15:17;;;;;;;19.25;15.52;;;7.20;99.90;;;;;;5085292;28;20199;-84
2022/03/31 01:17:45;;;;;;;23.83;16.60;;;7.10;99.90;;;;;;5068601;28;20203;-84
2022/03/31 01:20:16;;;;;;;22.63;16.00;;;7.10;99.90;;;;;;5082809;28;20620;-84
2022/03/31 01:22:45;;;;;;;25.38;16.70;;;7.10;99.90;;;;;;5077231;28;20203;-84
2022/03/31 01:25:14;;;;;;;22.15;15.98;;;7.10;99.90;;;;;;5074678;28;20206;-85
2022/03/31 01:27:44;;;;;;;21.95;16.45;;;7.00;99.90;;;;;;5084668;28;20198;-85
2022/03/31 01:30:14;;;;;;;22.20;15.80;;;7.10;99.90;;;;;;5068282;28;20223;-84
2022/03/31 01:32:43;;;;;;;24.65;16.45;;;7.10;99.90;;;;;;5071867;28;20203;-85
2022/03/31 01:35:11;;;;;;;24.05;16.20;;;7.20;99.90;;;;;;5077336;28;20199;-84
2022/03/31 01:37:39;;;;;;;21.98;15.55;;;7.20;99.90;;;;;;5068064;28;20783;-84
2022/03/31 01:40:07;;;;;;;23.27;16.80;;;7.20;99.90;;;;;;5068715;28;20187;-84
2022/03/31 01:42:37;;;;;;;21.98;16.15;;;7.10;99.90;;;;;;5069487;28;20205;-84
2022/03/31 01:45:05;;;;;;;21.23;15.45;;;7.10;99.90;;;;;;5057155;28;20285;-84
2022/03/31 01:47:33;;;;;;;19.05;14.20;;;7.20;99.90;;;;;;5087816;28;20237;-85
2022/03/31 01:50:01;;;;;;;25.00;16.67;;;7.30;99.90;;;;;;5069490;28;20310;-84
2022/03/31 01:52:29;;;;;;;22.27;15.35;;;7.20;99.90;;;;;;5062361;28;20203;-84
2022/03/31 01:54:55;;;;;;;20.33;15.00;;;7.20;99.90;;;;;;5074789;28;20209;-85
2022/03/31 01:57:23;;;;;;;18.90;13.45;;;7.10;99.90;;;;;;5072557;28;20202;-84
2022/03/31 01:59:51;;;;;;;17.73;13.43;;;7.00;99.90;;;;;;5083947;28;20543;-84
2022/03/31 02:02:18;;;;;;;20.33;14.38;;;7.00;99.90;;;;;;5087195;28;20285;-85
2022/03/31 02:04:45;;;;;;;18.98;15.00;;;7.00;99.90;;;;;;5075401;28;20230;-84
2022/03/31 02:07:12;;;;;;;20.05;14.40;;;7.00;99.90;;;;;;5068592;28;20196;-83
2022/03/31 02:09:39;;;;;;;18.30;14.48;;;7.00;99.90;;;;;;5084101;28;20737;-83
2022/03/31 02:12:07;;;;;;;21.50;14.70;;;7.00;99.90;;;;;;5076649;28;20210;-84
2022/03/31 02:14:37;;;;;;;17.10;13.57;;;6.90;99.90;;;;;;5067510;28;20226;-83
2022/03/31 02:17:06;;;;;;;17.80;13.80;;;6.90;99.90;;;;;;5069056;28;20218;-84
2022/03/31 02:19:32;;;;;;;21.55;14.50;;;6.90;99.90;;;;;;5072156;28;20223;-84
2022/03/31 02:21:59;;;;;;;17.88;14.15;;;6.90;99.90;;;;;;5071264;28;20298;-84
2022/03/31 02:24:26;;;;;;;19.13;14.55;;;6.80;99.90;;;;;;5088205;28;20639;-84
2022/03/31 02:26:54;;;;;;;18.52;13.68;;;6.80;99.90;;;;;;5071465;28;20577;-84
2022/03/31 02:29:21;;;;;;;18.25;14.00;;;6.70;99.90;;;;;;5053165;28;20242;-83
2022/03/31 02:31:47;;;;;;;19.17;12.20;;;6.70;99.90;;;;;;5074764;28;20211;-84
2022/03/31 02:34:16;;;;;;;20.52;14.75;;;6.70;99.90;;;;;;5079898;28;20211;-84
2022/03/31 02:36:44;;;;;;;18.38;14.30;;;6.70;99.90;;;;;;5068627;28;20592;-84
2022/03/31 02:39:12;;;;;;;17.20;13.98;;;6.80;99.90;;;;;;5071675;28;20233;-84
2022/03/31 02:41:40;;;;;;;20.33;14.70;;;6.80;99.90;;;;;;5070937;28;20238;-84
2022/03/31 02:44:08;;;;;;;17.45;13.95;;;6.70;99.90;;;;;;5071769;28;20195;-84
2022/03/31 02:46:35;;;;;;;17.77;14.05;;;6.70;99.90;;;;;;5087325;28;20206;-84
2022/03/31 02:49:04;;;;;;;20.25;14.10;;;6.70;99.90;;;;;;5084689;28;20211;-84
2022/03/31 02:51:32;;;;;;;17.80;14.50;;;6.70;99.90;;;;;;5069309;28;20226;-84
2022/03/31 02:56:43;;;;;;;21.85;15.10;;;6.80;99.90;;;;;;5053297;28;20202;-83
2022/03/31 02:59:10;;;;;;;16.75;13.55;;;6.60;99.90;;;;;;5068406;28;20260;-84
2022/03/31 03:01:37;;;;;;;20.45;13.95;;;6.70;99.90;;;;;;5068938;28;20630;-83
2022/03/31 03:04:04;;;;;;;17.63;13.52;;;6.80;99.90;;;;;;5067529;28;20199;-83
2022/03/31 03:06:32;;;;;;;19.23;13.35;;;6.90;99.90;;;;;;5068488;28;20310;-83
2022/03/31 03:08:59;;;;;;;16.75;13.90;;;6.90;99.90;;;;;;5079457;28;20284;-84
2022/03/31 03:11:26;;;;;;;19.60;13.75;;;6.90;99.90;;;;;;5074240;28;20210;-83
2022/03/31 03:13:53;;;;;;;17.55;12.82;;;7.00;99.90;;;;;;5068439;28;20249;-84
2022/03/31 03:16:20;;;;;;;18.98;13.18;;;6.90;99.90;;;;;;5085451;28;20198;-83
2022/03/31 03:18:47;;;;;;;17.50;12.70;;;6.80;99.90;;;;;;5069640;28;20633;-83
2022/03/31 03:21:14;;;;;;;16.65;13.63;;;6.90;99.90;;;;;;5077905;28;20201;-83
2022/03/31 03:23:43;;;;;;;17.10;13.27;;;6.70;99.90;;;;;;5087196;28;20293;-84
2022/03/31 03:26:10;;;;;;;18.80;14.10;;;6.70;99.90;;;;;;5067609;28;20533;-83
2022/03/31 03:28:37;;;;;;;18.80;13.65;;;6.60;99.90;;;;;;5068691;28;20207;-84
2022/03/31 03:31:04;;;;;;;20.70;14.25;;;6.60;99.90;;;;;;5074640;28;20202;-84
2022/03/31 03:33:31;;;;;;;18.42;13.80;;;6.70;99.90;;;;;;5076298;28;20284;-83
2022/03/31 03:35:58;;;;;;;18.90;13.98;;;6.70;99.90;;;;;;5067302;28;20227;-84
2022/03/31 03:38:25;;;;;;;18.90;15.20;;;6.70;99.90;;;;;;5067021;28;20211;-84
2022/03/31 03:40:54;;;;;;;18.23;14.80;;;6.70;99.90;;;;;;5068015;28;20199;-86
2022/03/31 03:43:21;;;;;;;23.13;16.48;;;6.70;99.90;;;;;;5066808;28;20203;-84
2022/03/31 03:45:48;;;;;;;21.98;15.40;;;6.70;99.90;;;;;;5068713;28;20306;-84
2022/03/31 03:48:15;;;;;;;22.23;17.70;;;6.50;99.90;;;;;;5083262;28;20306;-84
2022/03/31 03:50:42;;;;;;;22.25;15.77;;;6.70;99.90;;;;;;5070578;28;20238;-83
2022/03/31 03:53:09;;;;;;;21.38;15.80;;;6.60;99.90;;;;;;5080820;28;20313;-85
2022/03/31 03:55:38;;;;;;;20.08;15.75;;;6.50;99.90;;;;;;5085521;28;20515;-83
2022/03/31 03:58:06;;;;;;;23.25;16.63;;;6.50;99.90;;;;;;5079795;28;20210;-83
2022/03/31 04:00:34;;;;;;;18.35;16.17;;;6.50;99.90;;;;;;5085775;28;20230;-86
2022/03/31 04:03:01;;;;;;;20.38;14.38;;;6.40;99.90;;;;;;5090706;28;20611;-86
2022/03/31 04:05:28;;;;;;;23.83;15.43;;;6.40;99.90;;;;;;5082386;28;20448;-83
2022/03/31 04:07:55;;;;;;;19.75;16.23;;;6.40;99.90;;;;;;5089872;28;20669;-84
2022/03/31 04:10:21;;;;;;;19.08;15.18;;;6.30;99.90;;;;;;5084847;28;20654;-85
2022/03/31 04:12:49;;;;;;;23.38;16.83;;;6.30;99.90;;;;;;5078204;28;20235;-84
2022/03/31 04:15:17;;;;;;;21.98;15.68;;;6.30;99.90;;;;;;5075374;28;20571;-84
2022/03/31 04:17:44;;;;;;;20.17;15.13;;;6.40;99.90;;;;;;5071203;28;20280;-83
2022/03/31 04:20:13;;;;;;;20.50;15.02;;;6.40;99.90;;;;;;5084130;28;20294;-83
2022/03/31 04:22:40;;;;;;;19.92;13.82;;;6.40;99.90;;;;;;5075715;28;20215;-85
2022/03/31 04:25:09;;;;;;;19.25;15.27;;;6.40;99.90;;;;;;5071461;28;20222;-83
2022/03/31 04:27:37;;;;;;;17.27;14.98;;;6.30;99.90;;;;;;5070902;28;20203;-84
2022/03/31 04:30:06;;;;;;;19.15;15.18;;;6.20;99.90;;;;;;5076853;28;20294;-84
2022/03/31 04:32:34;;;;;;;20.63;14.35;;;6.10;99.90;;;;;;5090241;28;20260;-84
2022/03/31 04:35:01;;;;;;;21.30;16.73;;;6.10;99.90;;;;;;5072202;28;20202;-83
2022/03/31 04:37:28;;;;;;;19.17;15.30;;;6.10;99.90;;;;;;5089038;28;20211;-83
2022/03/31 04:39:55;;;;;;;22.40;16.25;;;6.10;99.90;;;;;;5083564;28;20223;-84
2022/03/31 04:42:22;;;;;;;22.50;16.52;;;6.10;99.90;;;;;;5086916;28;20292;-83
2022/03/31 04:44:49;;;;;;;21.55;15.60;;;6.10;99.90;;;;;;5080897;28;20241;-85
2022/03/31 04:47:16;;;;;;;21.27;17.08;;;6.10;99.90;;;;;;5074385;28;20202;-85
2022/03/31 04:49:44;;;;;;;21.35;17.23;;;6.20;99.90;;;;;;5078171;28;20294;-85
2022/03/31 04:52:11;;;;;;;18.92;13.98;;;6.10;99.90;;;;;;5079586;28;20203;-85
2022/03/31 04:54:43;;;;;;;21.23;16.48;;;6.20;99.90;;;;;;5072808;28;20248;-84
2022/03/31 04:57:11;;;;;;;23.33;16.95;;;6.10;99.90;;;;;;5089719;28;20198;-84
2022/03/31 04:59:38;;;;;;;23.27;17.88;;;6.00;99.90;;;;;;5077940;28;20291;-85
2022/03/31 05:02:05;;;;;;;20.60;15.18;;;6.00;99.90;;;;;;5070630;28;20203;-84
2022/03/31 05:04:32;;;;;;;27.70;18.77;;;5.90;99.90;;;;;;5069909;28;20302;-86
2022/03/31 05:07:00;;;;;;;21.67;16.80;;;5.70;99.90;;;;;;5065841;28;20284;-84
2022/03/31 05:09:27;;;;;;;24.85;17.80;;;5.60;99.90;;;;;;5062400;28;20250;-84
2022/03/31 05:11:55;;;;;;;21.63;16.17;;;5.70;99.90;;;;;;5068461;28;20195;-84
2022/03/31 05:14:22;;;;;;;23.60;17.52;;;5.80;99.90;;;;;;5073298;28;20209;-84
2022/03/31 05:16:49;;;;;;;26.50;17.67;;;5.90;99.90;;;;;;5065296;28;20214;-84
2022/03/31 05:19:16;;;;;;;24.55;17.63;;;5.80;99.90;;;;;;5064394;28;20224;-84
2022/03/31 05:21:43;;;;;;;28.52;22.27;;;5.50;99.90;;;;;;5069420;28;20204;-84
2022/03/31 05:24:11;;;;;;;25.15;17.70;;;5.60;99.90;;;;;;5071417;28;20286;-83
2022/03/31 05:26:38;;;;;;;19.90;16.48;;;5.80;99.90;;;;;;5067247;28;20242;-85
2022/03/31 05:29:05;;;;;;;22.77;18.13;;;5.70;99.90;;;;;;5062117;28;20286;-85
2022/03/31 05:31:32;;;;;;;25.17;18.55;;;6.00;99.90;;;;;;5064268;28;20231;-85
2022/03/31 05:33:59;;;;;;;26.17;18.67;;;6.00;99.90;;;;;;5071264;28;20234;-85
2022/03/31 05:36:26;;;;;;;23.52;17.45;;;6.00;99.90;;;;;;5070062;28;20283;-84
2022/03/31 05:38:54;;;;;;;27.95;18.85;;;6.00;99.90;;;;;;5071234;28;20290;-84
2022/03/31 05:41:23;;;;;;;23.70;16.00;;;5.90;99.90;;;;;;5064081;28;20196;-84
2022/03/31 05:43:50;;;;;;;20.02;15.75;;;5.90;99.90;;;;;;5067917;28;20251;-85
2022/03/31 05:46:16;;;;;;;21.98;16.63;;;6.00;99.90;;;;;;5061725;28;20203;-84
2022/03/31 05:48:43;;;;;;;23.70;16.10;;;6.00;99.90;;;;;;5064733;28;20283;-83
2022/03/31 05:51:12;;;;;;;24.40;16.13;;;6.00;99.90;;;;;;5064713;28;20292;-83
2022/03/31 05:53:38;;;;;;;22.60;16.63;;;6.00;99.90;;;;;;5068853;28;20230;-84
2022/03/31 05:56:06;;;;;;;21.88;16.85;;;6.00;99.90;;;;;;5061877;28;20207;-84
2022/03/31 05:58:34;;;;;;;20.95;15.63;;;5.90;99.90;;;;;;5066753;28;20670;-83
2022/03/31 06:01:01;;;;;;;21.90;16.17;;;5.90;99.90;;;;;;5062313;28;20294;-84
2022/03/31 06:03:28;;;;;;;21.17;16.98;;;5.80;99.90;;;;;;5067868;28;20264;-84
2022/03/31 06:05:55;;;;;;;24.95;16.67;;;5.70;99.90;;;;;;5068144;28;20218;-83
2022/03/31 06:08:22;;;;;;;20.13;15.50;;;5.70;99.90;;;;;;5070671;28;20670;-83
2022/03/31 06:10:49;;;;;;;20.17;17.20;;;5.70;99.90;;;;;;5068189;28;20654;-83
2022/03/31 06:13:16;;;;;;;22.92;17.13;;;5.60;99.90;;;;;;5062114;28;20196;-85
2022/03/31 06:15:44;;;;;;;20.80;15.98;;;5.80;99.90;;;;;;5064700;28;20638;-84
2022/03/31 06:18:11;;;;;;;22.15;15.85;;;5.80;99.90;;;;;;5068633;28;20207;-83
2022/03/31 06:20:38;;;;;;;21.45;16.30;;;5.70;99.90;;;;;;5065139;28;20227;-83
2022/03/31 06:23:05;;;;;;;20.52;15.77;;;5.70;99.90;;;;;;5064730;28;20276;-84
2022/03/31 06:25:32;;;;;;;26.48;17.23;;;5.70;99.90;;;;;;5066549;28;20256;-85
2022/03/31 06:27:59;;;;;;;23.15;17.23;;;5.90;99.90;;;;;;5066613;28;20285;-85
2022/03/31 06:30:26;;;;;;;25.17;17.55;;;6.00;99.90;;;;;;5071949;28;20221;-83
2022/03/31 06:32:54;;;;;;;19.55;14.95;;;5.90;99.90;;;;;;5069955;28;20290;-83
2022/03/31 06:35:22;;;;;;;25.15;18.25;;;5.90;99.90;;;;;;5058215;28;20285;-83
2022/03/31 06:37:49;;;;;;;21.70;16.92;;;5.80;99.90;;;;;;5067182;28;20211;-84
2022/03/31 06:40:19;;;;;;;22.92;16.17;;;5.80;99.90;;;;;;5064124;28;20200;-84
2022/03/31 06:42:47;;;;;;;17.40;13.82;;;5.90;99.90;;;;;;5072025;28;20276;-83
2022/03/31 06:45:16;;;;;;;24.02;17.52;;;5.90;99.90;;;;;;5072882;28;20278;-83
2022/03/31 06:47:44;;;;;;;23.20;16.30;;;5.90;99.90;;;;;;5078128;28;20202;-83
2022/03/31 06:50:13;;;;;;;21.48;16.00;;;5.90;99.90;;;;;;5060860;28;20711;-86
2022/03/31 06:52:40;;;;;;;20.40;15.90;;;5.90;99.90;;;;;;5071269;28;20200;-86
2022/03/31 06:55:11;;;;;;;26.60;16.35;;;5.90;99.90;;;;;;5068541;28;20282;-87
2022/03/31 06:57:41;;;;;;;24.27;15.90;;;6.00;99.90;;;;;;5065739;28;20225;-86
2022/03/31 07:00:09;;;;;;;25.40;17.42;;;6.00;99.90;;;;;;5066059;28;20614;-84
2022/03/31 07:02:36;;;;;;;21.35;17.40;;;6.10;99.90;;;;;;5067856;28;20203;-85
2022/03/31 07:05:04;;;;;;;24.20;18.20;;;6.20;99.90;;;;;;5066277;28;20314;-86
2022/03/31 07:07:32;;;;;;;26.35;16.90;;;6.30;99.90;;;;;;5067379;28;20218;-85
2022/03/31 07:10:01;;;;;;;26.80;18.30;;;6.40;99.90;;;;;;5067847;28;20230;-86
2022/03/31 07:12:28;;;;;;;25.08;17.70;;;6.40;99.90;;;;;;5064289;28;20757;-86
2022/03/31 07:14:55;;;;;;;25.27;17.10;;;6.40;99.90;;;;;;5068084;28;20280;-86
2022/03/31 07:17:22;;;;;;;21.15;16.90;;;6.40;99.90;;;;;;5064334;28;20206;-85
2022/03/31 07:19:49;;;;;;;23.48;16.20;;;6.40;99.90;;;;;;5065296;28;20615;-86
2022/03/31 07:22:16;;;;;;;23.73;17.58;;;6.30;99.90;;;;;;5064069;28;20205;-85
2022/03/31 07:24:44;;;;;;;20.98;15.75;;;6.20;99.90;;;;;;5060620;28;20257;-85
2022/03/31 07:27:11;;;;;;;20.60;15.85;;;6.30;99.90;;;;;;5063740;28;20302;-85
2022/03/31 07:29:38;;;;;;;24.02;16.55;;;6.30;99.90;;;;;;5070526;28;20227;-84
2022/03/31 07:32:05;;;;;;;23.67;17.50;;;6.40;99.90;;;;;;5066536;28;20227;-85
2022/03/31 07:34:32;;;;;;;26.70;17.42;;;6.20;99.90;;;;;;5065470;28;20211;-84
2022/03/31 07:37:00;;;;;;;25.92;17.60;;;6.30;99.90;;;;;;5083342;28;20243;-83
2022/03/31 07:39:27;;;;;;;24.52;17.08;;;6.30;99.90;;;;;;5073673;28;20625;-83
2022/03/31 07:41:55;;;;;;;24.70;16.63;;;6.30;99.90;;;;;;5066815;28;20191;-84
2022/03/31 07:44:22;;;;;;;23.20;16.77;;;6.30;99.90;;;;;;5079259;28;20207;-84
2022/03/31 07:46:51;;;;;;;23.10;15.98;;;6.40;99.90;;;;;;5085538;28;20380;-83
2022/03/31 07:49:18;;;;;;;24.65;16.13;;;6.40;99.90;;;;;;5070537;28;20681;-83
2022/03/31 07:51:45;;;;;;;22.65;16.65;;;6.30;99.90;;;;;;5067707;28;20314;-83
2022/03/31 07:54:12;;;;;;;22.20;16.85;;;6.40;99.90;;;;;;5068431;28;20290;-83
2022/03/31 07:56:39;;;;;;;24.50;16.20;;;6.50;99.90;;;;;;5067580;28;20233;-84
2022/03/31 07:59:07;;;;;;;21.58;18.52;;;6.60;99.90;;;;;;5053224;28;20195;-83
2022/03/31 08:01:34;;;;;;;20.80;15.45;;;6.50;99.90;;;;;;5087335;28;20252;-84
2022/03/31 08:04:03;;;;;;;21.75;15.98;;;6.50;99.90;;;;;;5079181;28;20207;-84
2022/03/31 08:06:30;;;;;;;22.88;17.20;;;6.60;99.90;;;;;;5062457;28;20203;-84
2022/03/31 08:08:57;;;;;;;22.05;16.08;;;6.60;99.90;;;;;;5071023;28;20222;-83
2022/03/31 08:11:24;;;;;;;22.30;16.40;;;6.50;99.90;;;;;;5079484;28;20271;-83
2022/03/31 08:13:51;;;;;;;21.13;16.98;;;6.30;99.90;;;;;;5067760;28;20214;-84
2022/03/31 08:16:19;;;;;;;20.98;14.98;;;6.30;99.90;;;;;;5077821;28;20658;-84
2022/03/31 08:18:47;;;;;;;20.00;16.05;;;6.20;99.90;;;;;;5073081;28;20231;-83
2022/03/31 08:21:14;;;;;;;23.20;17.02;;;6.20;99.90;;;;;;5071217;28;20203;-83
2022/03/31 08:23:41;;;;;;;23.65;16.80;;;6.40;99.90;;;;;;5079731;28;20203;-84
2022/03/31 08:26:08;;;;;;;21.38;16.02;;;6.50;99.90;;;;;;5085634;28;20599;-83
2022/03/31 08:28:36;;;;;;;26.15;17.38;;;6.70;99.90;;;;;;5068151;28;20322;-83
2022/03/31 08:31:03;;;;;;;22.73;17.30;;;6.80;99.90;;;;;;5074903;28;20215;-82
2022/03/31 08:33:31;;;;;;;28.33;19.10;;;7.00;99.90;;;;;;5088116;28;20670;-85
2022/03/31 08:35:58;;;;;;;25.38;17.45;;;7.10;99.90;;;;;;5077953;28;20665;-85
2022/03/31 08:38:25;;;;;;;28.58;17.77;;;7.10;99.90;;;;;;5068654;28;20275;-84
2022/03/31 08:40:54;;;;;;;22.77;16.50;;;7.10;99.90;;;;;;5074969;28;20203;-84
2022/03/31 08:43:22;;;;;;;23.95;17.00;;;7.10;99.90;;;;;;5089638;28;20300;-84
2022/03/31 08:45:54;;;;;;;23.95;16.20;;;6.90;99.90;;;;;;5077791;28;20199;-82
2022/03/31 08:48:22;;;;;;;24.25;17.80;;;7.00;99.90;;;;;;5079083;28;20203;-84
2022/03/31 08:50:51;;;;;;;23.40;16.20;;;6.80;99.90;;;;;;5077945;28;20229;-84
2022/03/31 08:53:18;;;;;;;22.55;16.58;;;6.90;99.90;;;;;;5086795;28;20199;-83
2022/03/31 08:55:45;;;;;;;23.02;16.63;;;7.10;99.90;;;;;;5070995;28;20211;-83
2022/03/31 08:58:11;;;;;;;24.20;17.73;;;7.40;99.90;;;;;;5078726;28;20276;-83
2022/03/31 09:00:38;;;;;;;26.83;17.85;;;7.50;99.90;;;;;;5080159;28;20219;-84
2022/03/31 09:03:08;;;;;;;20.40;16.25;;;7.70;99.90;;;;;;5083583;28;20254;-84
2022/03/31 09:05:41;;;;;;;23.15;17.02;;;7.80;99.90;;;;;;5070037;28;20204;-84
2022/03/31 09:08:12;;;;;;;23.58;16.60;;;7.90;99.90;;;;;;5071164;28;20294;-84
2022/03/31 09:10:44;;;;;;;23.60;16.85;;;8.20;99.90;;;;;;5079407;28;20262;-82
2022/03/31 09:13:20;;;;;;;25.08;17.23;;;8.20;99.90;;;;;;5050163;28;20222;-82
2022/03/31 09:15:51;;;;;;;25.13;17.73;;;8.40;99.10;;;;;;5069628;28;20204;-83
2022/03/31 09:18:20;;;;;;;22.35;17.30;;;8.50;99.20;;;;;;5078340;28;20238;-83
2022/03/31 09:20:48;;;;;;;18.75;15.02;;;8.20;99.30;;;;;;5078065;28;20205;-84
2022/03/31 09:23:17;;;;;;;20.35;15.65;;;8.10;99.50;;;;;;5089497;28;20232;-82
2022/03/31 09:25:44;;;;;;;24.90;17.90;;;8.20;99.80;;;;;;5063874;28;20213;-85
2022/03/31 09:28:13;;;;;;;26.17;17.33;;;8.30;99.90;;;;;;5078348;28;20308;-83
2022/03/31 09:30:45;;;;;;;22.45;17.35;;;8.30;99.40;;;;;;5080737;28;20217;-83
2022/03/31 09:33:12;;;;;;;26.90;17.40;;;8.40;99.60;;;;;;5086292;28;20239;-83
2022/03/31 09:35:39;;;;;;;22.57;16.60;;;8.60;99.50;;;;;;5070182;28;20580;-83
2022/03/31 09:38:12;;;;;;;23.30;17.25;;;8.80;99.20;;;;;;5069826;28;20720;-83
2022/03/31 09:40:40;;;;;;;21.80;17.10;;;8.70;98.80;;;;;;5078999;28;20258;-83
2022/03/31 09:43:07;;;;;;;21.95;16.08;;;8.60;99.20;;;;;;5074053;28;20957;-84
2022/03/31 09:45:38;;;;;;;22.53;17.80;;;8.60;99.40;;;;;;5070110;28;20210;-84
2022/03/31 09:48:08;;;;;;;21.63;16.60;;;8.50;99.60;;;;;;5069860;28;20637;-83
2022/03/31 09:50:36;;;;;;;22.90;17.98;;;8.80;99.00;;;;;;5069494;28;20217;-84
2022/03/31 09:53:04;;;;;;;21.98;17.67;;;8.90;98.40;;;;;;5072654;28;20214;-82
2022/03/31 09:55:32;;;;;;;28.83;18.43;;;8.90;98.10;;;;;;5084839;28;20221;-83
2022/03/31 09:58:01;;;;;;;22.48;17.13;;;9.00;98.50;;;;;;5068670;28;20633;-83
2022/03/31 10:00:28;;;;;;;23.43;15.80;;;9.00;98.50;;;;;;5085417;28;20216;-83
2022/03/31 10:02:56;;;;;;;19.90;16.30;;;9.20;98.10;;;;;;5085958;28;20704;-83
2022/03/31 10:05:24;;;;;;;24.70;19.30;;;9.40;98.00;;;;;;5069793;28;20698;-84
2022/03/31 10:07:52;;;;;;;23.80;16.43;;;9.60;98.10;;;;;;5069013;28;20629;-82
2022/03/31 10:10:19;;;;;;;24.30;17.27;;;9.70;97.80;;;;;;5068523;28;20691;-83
2022/03/31 10:12:51;;;;;;;24.73;18.80;;;9.90;97.00;;;;;;5070869;28;20661;-83
2022/03/31 10:15:28;;;;;;;21.53;16.50;;;10.10;96.30;;;;;;5066756;28;20644;-83
2022/03/31 10:17:55;;;;;;;25.97;17.43;;;9.90;96.40;;;;;;5068835;28;20986;-83
2022/03/31 10:20:22;;;;;;;22.93;15.80;;;9.90;97.20;;;;;;5075389;28;21284;-83
2022/03/31 10:25:42;;;;;;;21.00;16.17;;;10.40;95.20;;;;;;5079577;28;20620;-83
2022/03/31 10:28:12;;;;;;;16.87;15.07;;;10.30;95.10;;;;;;5081382;28;20706;-83
2022/03/31 10:30:43;;;;;;;17.93;14.57;;;10.10;95.80;;;;;;5076191;28;20629;-84
2022/03/31 10:33:11;;;;;;;18.60;15.23;;;10.00;95.50;;;;;;5068882;28;21056;-85
2022/03/31 10:35:40;;;;;;;20.13;15.07;;;9.80;95.90;;;;;;5078987;28;20629;-85
2022/03/31 10:38:15;;;;;;;21.23;15.90;;;10.10;95.50;;;;;;5068428;28;20617;-83
2022/03/31 10:40:43;;;;;;;20.47;16.03;;;10.30;95.60;;;;;;5066953;28;20717;-85
2022/03/31 10:43:22;;;;;;;18.90;16.30;;;10.50;94.70;;;;;;5065556;28;20621;-85
2022/03/31 10:45:51;;;;;;;23.03;16.67;;;10.60;95.50;;;;;;5064754;28;21513;-83
2022/03/31 10:48:20;;;;;;;23.33;16.70;;;10.50;94.60;;;;;;5068007;28;21151;-83
2022/03/31 10:50:48;;;;;;;21.97;15.37;;;10.50;95.00;;;;;;5065545;28;20732;-84
2022/03/31 10:53:15;;;;;;;21.67;15.07;;;10.50;94.90;;;;;;5079354;28;20712;-85
2022/03/31 10:55:48;;;;;;;23.47;15.63;;;10.40;95.00;;;;;;5082991;28;20627;-83
2022/03/31 10:58:25;;;;;;;23.30;15.63;;;10.40;94.80;;;;;;5068146;28;20660;-83
2022/03/31 11:00:54;;;;;;;22.00;16.10;;;10.40;95.20;;;;;;5068387;28;20640;-83
2022/03/31 11:03:21;;;;;;;19.70;16.33;;;10.20;95.00;;;;;;5081089;28;20648;-83
2022/03/31 11:05:49;;;;;;;20.87;15.17;;;10.30;95.00;;;;;;5071332;28;20630;-84
2022/03/31 11:08:18;;;;;;;21.70;16.20;;;10.30;95.10;;;;;;5076426;28;20731;-84
2022/03/31 11:10:47;;;;;;;20.67;15.83;;;10.40;95.10;;;;;;5068606;28;21213;-83
2022/03/31 11:13:15;;;;;;;22.80;17.10;;;10.50;94.80;;;;;;5079861;28;20679;-84
2022/03/31 11:15:44;;;;;;;21.97;16.83;;;10.70;95.10;;;;;;5068794;28;20958;-84
2022/03/31 11:18:12;;;;;;;21.63;16.07;;;10.90;94.40;;;;;;5072901;28;20625;-84
2022/03/31 11:20:39;;;;;;;22.93;16.23;;;10.50;94.00;;;;;;5067302;28;20625;-85
2022/03/31 11:23:07;;;;;;;19.63;15.43;;;10.60;94.60;;;;;;5066848;28;21206;-83
2022/03/31 11:25:35;;;;;;;22.80;15.80;;;10.50;94.30;;;;;;5062218;28;20628;-84
2022/03/31 11:28:11;;;;;;;23.20;15.47;;;10.40;94.80;;;;;;5063933;28;20730;-83
2022/03/31 11:30:38;;;;;;;24.20;16.60;;;10.10;94.40;;;;;;5061312;28;20625;-85
2022/03/31 11:33:09;;;;;;;20.97;15.33;;;10.00;95.00;;;;;;5060638;28;20662;-83
2022/03/31 11:35:38;;;;;;;21.00;15.93;;;10.20;95.10;;;;;;5063249;28;20634;-84
2022/03/31 11:38:07;;;;;;;20.10;15.20;;;10.40;94.50;;;;;;5056045;28;20687;-84
2022/03/31 11:40:37;;;;;;;21.23;16.47;;;7.90;94.30;;;;;;5066103;28;20621;-85
2022/03/31 11:43:06;;;;;;;23.50;17.10;;;10.40;94.60;;;;;;5064972;28;21140;-85
2022/03/31 11:45:34;;;;;;;21.40;16.37;;;10.20;95.00;;;;;;5066325;28;20721;-84
2022/03/31 11:48:04;;;;;;;20.90;15.93;;;10.00;95.40;;;;;;5058589;28;20621;-83
2022/03/31 11:50:33;;;;;;;20.30;14.33;;;10.10;95.80;;;;;;5066746;28;21059;-83
2022/03/31 11:53:02;;;;;;;21.77;16.33;;;10.50;95.20;;;;;;5064000;28;20722;-84
2022/03/31 11:55:30;;;;;;;19.60;15.57;;;10.90;94.90;;;;;;5067054;28;20676;-84
2022/03/31 11:57:58;;;;;;;22.00;15.63;;;10.70;94.80;;;;;;5064789;28;20654;-84
2022/03/31 12:00:27;;;;;;;18.13;14.40;;;10.80;94.50;;;;;;5059657;28;20706;-84
2022/03/31 12:02:59;;;;;;;19.83;14.00;;;10.90;94.00;;;;;;5065142;28;20760;-85
2022/03/31 12:05:27;;;;;;;23.57;17.20;;;11.00;93.90;;;;;;5065889;28;20682;-86
2022/03/31 12:07:54;;;;;;;20.57;17.10;;;11.10;94.20;;;;;;5068223;28;20730;-87
2022/03/31 12:10:23;;;;;;;23.03;17.00;;;11.00;93.70;;;;;;5069107;28;21034;-86
2022/03/31 12:12:51;;;;;;;24.20;16.77;;;10.90;94.00;;;;;;5071020;28;20658;-86
2022/03/31 12:15:24;;;;;;;23.47;16.07;;;11.00;94.20;;;;;;5071287;28;20686;-85
2022/03/31 12:18:02;;;;;;;17.57;14.50;;;11.00;94.10;;;;;;5064416;28;20624;-85
2022/03/31 12:20:31;;;;;;;19.50;14.37;;;11.20;93.50;;;;;;5070756;28;20643;-85
2022/03/31 12:22:58;;;;;;;18.70;14.67;;;11.30;93.20;;;;;;5071328;28;21236;-85
2022/03/31 12:25:31;;;;;;;21.97;16.90;;;11.30;93.30;;;;;;5068723;28;20675;-85
2022/03/31 12:28:02;;;;;;;19.63;15.70;;;11.10;93.40;;;;;;5064121;28;21183;-83
2022/03/31 12:30:39;;;;;;;19.83;15.70;;;10.90;93.60;;;;;;5067417;28;20703;-84
2022/03/31 12:33:18;;;;;;;17.30;14.50;;;10.40;93.70;;;;;;5071586;28;20670;-84
2022/03/31 12:35:52;;;;;;;19.20;15.80;;;10.40;94.60;;;;;;5084013;28;20619;-84
2022/03/31 12:38:19;;;;;;;21.70;16.70;;;10.60;93.80;;;;;;5087477;28;20621;-85
2022/03/31 12:40:48;;;;;;;22.13;16.63;;;10.60;93.50;;;;;;5089756;28;20642;-86
2022/03/31 12:43:25;;;;;;;20.80;15.07;;;10.70;93.30;;;;;;5082892;28;20776;-86
2022/03/31 12:45:52;;;;;;;21.77;16.47;;;10.60;93.40;;;;;;5068773;28;21215;-87